Latest Coastal Weather Observations for Williamtown

IDN60701

Issued at 4:55 pm EST Wednesday 23 April 2014 (issued every 10 minutes, with the page automatically refreshed every 10 minutes)

About coastal observations | Map of coastal stations | Coastal observations for NSW | Marine services | Other Formats
Station Details ID: 061078 Name: WILLIAMTOWN RAAF Lat: -32.79 Lon: 151.84 Height: 9.0 m
Data from the previous 72 hours. | See also: Recent months at Williamtown
Date/Time
EST
Temp

°C
Wind Pressure Rain
since 9am
mm
Weather Cloud Vis
km
Sea
Height
m
Swell
Dir
 
Speed
knots
Gust
knots
hPa Trend Height
m
Period
s
Dir
23/04:30pm 22.4 ESE 7 10 1015.1 - 0.0 - Mostly clear 10 - - - -
23/04:00pm 22.9 SE 9 10 1015.0 - 0.0 - Mostly clear 10 - - - -
23/03:30pm 23.4 SE 10 12 1015.0 - 0.0 - Mostly clear 10 - - - -
23/03:00pm 23.4 SE 9 11 1015.0 - 0.0 - Partly cloudy 10 - - - -
23/02:30pm 23.3 SE 8 10 1014.9 - 0.0 - Mostly clear 10 - - - -
23/02:00pm 23.1 SSE 9 11 1014.9 - 0.0 - Mostly clear 10 - - - -
23/01:30pm 24.7 SSE 11 14 1014.9 - 0.0 - Mostly clear 10 - - - -
23/01:00pm 26.0 W 8 15 1015.2 - 0.0 - Mostly clear 10 - - - -
23/12:30pm 25.8 WNW 7 12 1015.6 - 0.0 - Partly cloudy 10 - - - -
23/12:00pm 24.8 W 7 10 1016.1 - 0.0 - Partly cloudy 10 - - - -
23/11:30am 24.7 W 7 10 1016.5 - 0.0 - Partly cloudy 10 - - - -
23/11:00am 23.6 WNW 9 12 1016.9 - 0.0 - - 10 - - - -
23/10:30am 22.9 WNW 7 10 1017.2 - 0.0 - - 10 - - - -
23/10:00am 21.5 WNW 11 14 1017.5 - 0.0 - - 10 - - - -
23/09:30am 20.4 WNW 9 12 1017.6 - 0.0 - - 10 - - - -
23/09:00am 19.1 NW 9 12 1017.7 - 0.0 - - 10 - - - -
23/08:30am 17.1 NW 7 9 1017.8 - 0.0 - - 10 - - - -
23/08:00am 15.9 W 7 8 1017.8 - 0.0 - - 10 - - - -
23/07:30am 14.4 NW 1 6 1017.8 - 0.0 - - 10 - - - -
23/07:00am 11.5 CALM 0 0 1017.5 - 0.0 - - 10 - - - -
23/06:30am 11.3 NW 4 5 1017.2 - 0.0 - - 10 - - - -
23/06:00am 11.8 N 5 6 1017.1 - 0.0 - - 10 - - - -
23/05:30am 11.9 NNW 6 8 1017.1 - 0.0 - - 10 - - - -
23/05:00am 12.4 CALM 0 0 1017.0 - 0.0 - Partly cloudy 10 - - - -
23/04:30am 12.9 NW 6 7 1016.8 - 0.0 - - 10 - - - -
23/04:00am 13.5 NW 7 8 1016.7 - 0.0 - Partly cloudy 10 - - - -
23/03:30am 12.9 NW 7 8 1016.6 - 0.0 - - 10 - - - -
23/03:00am 13.0 CALM 0 0 1016.4 - 0.0 - - 10 - - - -
23/02:30am 13.4 CALM 0 0 1016.3 - 0.0 - - 10 - - - -
23/02:00am 14.5 CALM 0 0 1016.5 - 0.0 - - 10 - - - -
23/01:30am 14.4 WNW 6 7 1016.7 - 0.0 - - 10 - - - -
23/01:00am 14.6 NW 5 5 1016.7 - 0.0 - - 10 - - - -
23/12:30am 14.8 NW 7 8 1017.0 - 0.0 - - 10 - - - -
23/12:00am 14.5 NW 7 7 1017.0 - 0.0 - - 10 - - - -
 
Date/Time
EST
Temp

°C
Wind Pressure Rain
since 9am
mm
Weather Cloud Vis
km
Sea
Height
m
Swell
Dir
 
Speed
knots
Gust
knots
hPa Trend Height
m
Period
s
Dir
22/11:30pm 13.9 NNW 6 7 1017.0 - 0.0 - - 10 - - - -
22/11:00pm 13.2 NW 4 6 1017.3 - 0.0 - Partly cloudy 10 - - - -
22/10:30pm 13.4 CALM 0 0 1017.3 - 0.0 - Partly cloudy 10 - - - -
22/10:00pm 14.4 CALM 0 0 1017.3 - 0.0 - - 10 - - - -
22/09:30pm 14.5 CALM 0 0 1017.3 - 0.0 - - 10 - - - -
22/09:00pm 15.9 CALM 0 0 1017.1 - 0.0 - - 10 - - - -
22/08:30pm 16.1 CALM 0 0 1016.9 - 0.0 - - 10 - - - -
22/08:00pm 17.3 CALM 0 0 1016.8 - 0.0 - - 10 - - - -
22/07:30pm 18.0 NNE 3 6 1016.6 - 0.0 - - 10 - - - -
22/07:00pm 18.3 N 5 6 1016.5 - 0.0 - - 10 - - - -
22/06:30pm 20.4 N 7 8 1016.4 - 0.0 - - 10 - - - -
22/06:00pm 19.3 N 5 6 1016.0 - 0.0 - - 10 - - - -
22/05:30pm 21.1 NNW 6 7 1015.8 - 0.0 - - 10 - - - -
22/05:00pm 22.7 WNW 8 10 1015.7 - 0.0 - - 10 - - - -
22/04:30pm 24.1 WNW 9 11 1015.7 - 0.0 - - 10 - - - -
22/04:00pm 25.4 WNW 11 18 1015.7 - 0.0 - - 10 - - - -
22/03:30pm 25.7 WNW 11 15 1015.6 - 0.0 - - 10 - - - -
22/03:00pm 25.1 WNW 13 17 1015.6 R 0.0 Haze Mostly cloudy 25 - - - -
22/02:36pm 25.4 WNW 16 26 1015.6 - 0.0 - - 10 - - - -
22/02:30pm 25.3 WNW 14 21 1015.6 - 0.0 - - 10 - - - -
22/02:00pm 24.9 WNW 9 17 1015.8 - 0.0 - - 10 - - - -
22/01:30pm 24.2 WNW 9 15 1016.0 - 0.0 - - 10 - - - -
22/01:00pm 23.8 WNW 11 14 1016.3 - 0.0 - - 10 - - - -
22/12:30pm 23.5 WNW 9 10 1016.8 - 0.0 - - 10 - - - -
22/12:00pm 21.9 NNW 10 13 1017.4 F 0.0 Haze Mostly cloudy 20 - - - -
22/11:30am 21.7 NNW 7 10 1017.8 - 0.0 - - 10 - - - -
22/11:00am 20.7 NW 9 12 1018.6 - 0.0 - - 10 - - - -
22/10:30am 20.1 WNW 10 13 1019.0 - 0.0 - - 10 - - - -
22/10:00am 18.8 NW 10 13 1019.0 - 0.0 - - 10 - - - -
22/09:30am 17.3 WNW 9 12 1019.2 - 0.0 - - 10 - - - -
22/09:00am 15.9 WNW 11 15 1019.5 F 0.0 Fine Mostly cloudy 30 - - - -
22/08:30am 14.6 NW 9 11 1019.6 - 0.0 - - 10 - - - -
22/08:00am 12.8 WNW 8 9 1019.6 - 0.0 - - 10 - - - -
22/07:30am 12.2 WNW 9 10 1019.5 - 0.0 - - 10 - - - -
22/07:00am 11.0 NW 6 7 1019.2 - 0.0 - - 10 - - - -
22/06:30am 9.6 NW 6 7 1019.2 - 0.0 - Mostly clear 10 - - - -
22/06:00am 8.9 NW 5 5 1019.1 F 0.0 Fine Mostly clear 20 - - - -
22/05:30am 9.1 WNW 3 4 1019.1 - 0.0 - - 10 - - - -
22/05:00am 9.3 NW 5 6 1019.0 - 0.0 - - 10 - - - -
22/04:30am 9.1 NW 5 5 1019.0 - 0.0 - - 10 - - - -
22/04:00am 9.3 CALM 0 0 1018.9 - 0.0 - - 10 - - - -
22/03:30am 9.0 CALM 0 0 1018.9 - 0.0 - - 10 - - - -
22/03:00am 8.8 CALM 0 0 1019.2 - 0.0 - - 10 - - - -
22/02:30am 9.2 CALM 0 0 1019.3 - 0.0 - - 10 - - - -
22/02:00am 9.5 CALM 0 0 1019.6 - 0.0 - - 10 - - - -
22/01:30am 9.7 CALM 0 0 1020.0 - 0.0 - - 10 - - - -
22/01:00am 9.9 CALM 0 0 1020.2 - 0.0 - - 10 - - - -
22/12:30am 10.2 CALM 0 0 1020.3 - 0.0 - - 10 - - - -
22/12:00am 10.2 CALM 0 0 1020.3 - 0.0 - - 10 - - - -
 
Date/Time
EST
Temp

°C
Wind Pressure Rain
since 9am
mm
Weather Cloud Vis
km
Sea
Height
m
Swell
Dir
 
Speed
knots
Gust
knots
hPa Trend Height
m
Period
s
Dir
21/11:30pm 10.3 CALM 0 0 1020.5 - 0.0 - - 10 - - - -
21/11:00pm 10.7 CALM 0 0 1020.5 - 0.0 - - 10 - - - -
21/10:30pm 10.9 CALM 0 0 1020.6 - 0.0 - - 10 - - - -
21/10:00pm 10.4 CALM 0 2 1020.7 - 0.0 - - 10 - - - -
21/09:30pm 11.5 CALM 0 0 1020.8 - 0.0 - - 10 - - - -
21/09:00pm 11.7 CALM 0 0 1020.6 - 0.0 - - 10 - - - -
21/08:30pm 12.1 CALM 0 0 1020.5 - 0.0 - - 10 - - - -
21/08:00pm 12.2 CALM 0 0 1020.3 - 0.0 - - 10 - - - -
21/07:30pm 13.0 CALM 0 0 1020.1 - 0.0 - - 10 - - - -
21/07:00pm 13.4 CALM 0 0 1019.8 - 0.0 - - 10 - - - -
21/06:30pm 14.5 CALM 0 0 1019.5 - 0.0 - - 10 - - - -
21/06:00pm 16.3 CALM 0 0 1019.3 - 0.0 - - 10 - - - -
21/05:30pm 18.0 SE 5 5 1019.2 - 0.0 - - 10 - - - -
21/05:00pm 19.1 SE 6 7 1018.8 - 0.0 - - 10 - - - -
21/04:30pm 20.4 SSE 7 9 1018.8 - 0.0 - - 10 - - - -
21/04:00pm 21.0 SE 7 9 1018.6 - 0.0 - - 10 - - - -
21/03:30pm 22.7 WSW 6 9 1018.4 - 0.0 - - 10 - - - -
21/03:00pm 22.9 W 6 9 1018.4 R 0.0 Fine Mostly clear 40 - - - -
21/02:30pm 22.7 WNW 6 9 1018.4 - 0.0 - - 10 - - - -
21/02:00pm 23.2 WSW 4 8 1018.6 - 0.0 - - 10 - - - -
21/01:30pm 22.5 WNW 8 12 1018.9 - 0.0 - - 10 - - - -
21/01:00pm 22.6 W 7 10 1019.1 - 0.0 - - 10 - - - -
21/12:30pm 22.2 W 8 14 1019.3 - 0.0 - - 10 - - - -
21/12:00pm 21.1 W 7 10 1019.8 F 0.0 Fine Mostly clear 40 - - - -
21/11:30am 20.9 W 7 11 1020.4 - 0.0 - - 10 - - - -
21/11:00am 20.3 NW 7 9 1020.7 - 0.0 - - 10 - - - -
21/10:30am 19.5 W 10 13 1020.9 - 0.0 - - 10 - - - -
21/10:00am 18.4 WNW 11 14 1021.0 - 0.0 - Mostly clear 10 - - - -
21/09:30am 18.0 W 8 13 1021.2 - 0.0 - Mostly clear 10 - - - -
21/09:00am 16.9 W 8 11 1021.3 S 0.0 Fine Mostly clear 40 - - - -
21/08:30am 15.4 W 7 9 1021.3 - 0.0 - - 10 - - - -
21/08:00am 14.3 W 7 11 1021.0 - 0.0 - - 10 - - - -
21/07:30am 12.7 W 5 7 1020.8 - 0.0 - - 10 - - - -
21/07:00am 11.2 WNW 6 8 1020.4 - 0.0 - - 10 - - - -
21/06:30am 10.2 WNW 7 10 1020.0 - 0.0 - - 10 - - - -
21/06:00am 10.0 W 4 5 1019.6 R 0.0 Fine Clear 40 - - - -
21/05:30am 10.9 W 6 8 1019.2 - 0.0 - - 10 - - - -
21/05:00am 10.9 W 7 9 1019.1 - 0.0 - - 10 - - - -
21/04:30am 10.5 W 7 8 1018.6 - 0.0 - - 10 - - - -
21/04:00am 10.1 W 6 8 1018.3 - 0.0 - - 10 - - - -
21/03:30am 10.6 W 5 7 1018.1 - 0.0 - - 10 - - - -
21/03:00am 11.0 WNW 9 10 1017.8 - 0.0 - - 10 - - - -
21/02:30am 11.6 WNW 7 8 1017.9 - 0.0 - - 10 - - - -
21/02:00am 12.2 W 7 8 1018.0 - 0.0 - - 10 - - - -
21/01:30am 13.1 NW 9 11 1017.9 - 0.0 - - 10 - - - -
21/01:00am 12.3 NW 6 7 1017.9 - 0.0 - - 10 - - - -
21/12:30am 12.5 WNW 4 4 1017.9 - 0.0 - - 10 - - - -
21/12:00am 13.1 WNW 5 6 1017.7 - 0.0 - - 10 - - - -
 
Date/Time
EST
Temp

°C
Wind Pressure Rain
since 9am
mm
Weather Cloud Vis
km
Sea
Height
m
Swell
Dir
 
Speed
knots
Gust
knots
hPa Trend Height
m
Period
s
Dir
20/11:30pm 13.7 WNW 6 7 1017.5 - 0.0 - - 10 - - - -
20/11:00pm 13.9 W 7 9 1017.6 - 0.0 - - 10 - - - -
20/10:30pm 14.8 CALM 0 0 1017.5 - 0.0 - - 10 - - - -
20/10:00pm 15.8 CALM 0 4 1017.4 - 0.0 - - 10 - - - -
20/09:30pm 16.1 NNE 3 6 1017.2 - 0.0 - - 10 - - - -
20/09:00pm 17.5 ENE 5 6 1017.1 - 0.0 - - 10 - - - -
20/08:30pm 16.6 NE 4 6 1017.0 - 0.0 - - 10 - - - -
20/08:00pm 17.3 NE 5 6 1016.8 - 0.0 - - 10 - - - -
20/07:30pm 17.7 NE 5 6 1016.6 - 0.0 - - 10 - - - -
20/07:00pm 18.2 NE 6 9 1016.4 - 0.0 - - 10 - - - -
20/06:30pm 18.6 NE 5 7 1016.2 - 0.0 - - 10 - - - -
20/06:00pm 19.4 ENE 5 6 1015.9 - 0.0 - - 10 - - - -
20/05:30pm 20.6 ENE 6 7 1015.5 - 0.0 - - 10 - - - -
20/05:00pm 21.6 ENE 7 9 1015.3 - 0.0 - - 10 - - - -

Other Formats:

Comma delimited format used in spreadsheet applications
http://www.bom.gov.au/fwo/IDN60701/IDN60701.94776.axf

JavaScript Object Notation format (JSON) in row-major order
http://www.bom.gov.au/fwo/IDN60701/IDN60701.94776.json